• Join FlightAware (Why Join?)
  • Login
  • US Flag 
12:50PM EDT


 

Airport Tracker/Info


-or-


 

Live Flight TrackerFlight Track Log ✈ SWA2966 ✈ 07-Dec-2013 ✈ KOAK - KLAX

Flight Track Log - Related Links

Times and Time Zones

All times are in EST time to prevent confusion due to time zone crossing. See the SWA2966 flight status page for this flight to view local times or setup timezone preferences in your user account.

Time Position Orientation Groundspeed Altitude Reporting Facility
EST Latitude Longitude Course Direction KTS MPH feet Rate Location/Type
10:17AM 37.7308 -122.2581 228° Southwest 151 174 1,500  Level Oakland Center
10:18AM 37.7578 -122.3119 302° West 189 217 4,100 3,000 Climbing Oakland Center
10:19AM 37.7667 -122.3500 286° West 187 215 6,300 3,240 Climbing Northern Cal TRACON
10:20AM 37.7000 -122.3833 202° Southwest 259 298 9,200 2,400 Climbing Northern Cal TRACON
10:21AM 37.6017 -122.3292 156° South 329 379 12,300 1,920 Climbing Oakland Center
10:22AM 37.5172 -122.2425 141° Southeast 389 448 14,000 1,800 Climbing Oakland Center
10:23AM 37.2543 -121.7222 228° Southwest  Level Estimated
10:23AM 37.4233 -122.1425 140° Southeast 441 507 16,000  Level Oakland Center
10:24AM 37.3414 -122.0164 129° Southeast 464 534 18,300 2,580 Climbing Oakland Center
10:25AM 37.2269 -121.8767 136° Southeast 479 551 21,300 2,100 Climbing Oakland Center
10:26AM 37.1456 -121.7772 136° Southeast 482 555 22,600 1,560 Climbing Oakland Center
10:27AM 37.0250 -121.6367 137° Southeast 516 594 24,500 1,620 Climbing Oakland Center
10:28AM 36.9189 -121.5086 136° Southeast 528 608 25,900 1,320 Climbing Oakland Center
10:29AM 36.8158 -121.3722 133° Southeast 540 621 27,200 1,080 Climbing Oakland Center
10:30AM 36.7042 -121.2403 137° Southeast 564 649 28,100 1,260 Climbing Oakland Center
10:31AM 36.5881 -121.1011 136° Southeast 579 666 29,800 1,740 Climbing Oakland Center
10:32AM 36.4747 -120.9642 136° Southeast 571 657 31,700 1,680 Climbing Oakland Center
10:33AM 36.3617 -120.8294 136° Southeast 566 651 33,200 1,680 Climbing Oakland Center
10:34AM 36.2511 -120.6942 135° Southeast 562 647 35,100 1,740 Climbing Oakland Center
10:35AM 36.1411 -120.5628 136° Southeast 552 635 36,800 840 Climbing Oakland Center
10:36AM 36.0317 -120.4325 136° Southeast 547 629 36,900 60 Climbing Oakland Center
10:37AM 35.9214 -120.2997 136° Southeast 552 635 37,000  Climbing Oakland Center
10:38AM 35.8097 -120.1694 137° Southeast 549 632 37,000  Level Oakland Center
10:39AM 35.6981 -120.0392 137° Southeast 548 631 37,000 -60 Level Oakland Center
10:40AM 35.5778 -119.9186 141° Southeast 560 644 36,900 -420 Descending Oakland Center
10:41AM 35.4511 -119.8103 145° Southeast 550 633 36,200 -900 Descending Oakland Center
10:42AM 35.3278 -119.7025 145° Southeast 543 625 35,100 -1,080 Descending Oakland Center
10:43AM 35.1767 -119.5731 145° Southeast 547 629 34,100 -1,920 Descending Oakland Center
10:44AM 35.0494 -119.4622 144° Southeast 557 641 31,300 -3,060 Descending Oakland Center
10:45AM 34.9189 -119.3519 145° Southeast 566 651 28,000 -3,060 Descending Oakland Center
10:46AM 34.7900 -119.2461 146° Southeast 563 648 25,200 -2,760 Descending Oakland Center
10:47AM 34.6717 -119.1467 145° Southeast 534 615 22,500 -2,580 Descending Oakland Center
10:49AM 34.5442 -119.0389 145° Southeast 483 556 19,700 -2,340 Descending Los Angeles Center
10:50AM 34.4400 -118.9514 145° Southeast 453 521 17,500 -2,100 Descending Los Angeles Center
10:51AM 34.3592 -118.8867 147° Southeast 437 503 15,500 -2,400 Descending Los Angeles Center
10:52AM 34.2314 -118.8364 162° South 401 461 12,600 -1,800 Descending Los Angeles Center
10:53AM 34.1358 -118.8006 163° South 358 412 11,900 -1,260 Descending Los Angeles Center
10:54AM 34.0461 -118.7492 155° Southeast 336 387 10,100 -960 Descending Los Angeles Center
10:55AM 34.0283 -118.6542 103° East 289 333 10,000 -660 Descending Los Angeles Center
10:56AM 34.0197 -118.5597 96° East 284 327 8,800 -1,320 Descending Los Angeles Center
10:57AM 34.0111 -118.4689 96° East 274 315 7,400 -1,380 Descending Los Angeles Center
10:58AM 34.0186 -118.3964 83° East 260 299 6,000 -1,920 Descending Los Angeles Center
10:59AM 34.0303 -118.2981 82° East 247 284 3,500 -1,860 Descending Los Angeles Center
11:00AM 34.0250 -118.2325 96° East 229 264 2,200 -600 Descending Los Angeles Center
11:01AM 33.9864 -118.2722 220° Southwest 207 238 2,300 -360 Climbing Los Angeles Center
11:02AM 33.9589 -118.3217 236° Southwest 193 222 1,500 -780 Descending Los Angeles Center
11:03AM 33.9569 -118.3692 267° West 163 188 800 -660 Descending Los Angeles Center
11:04AM 33.9508 -118.4178 261° West 149 171 200 -600 Descending Los Angeles Center
11:06AM 33.9425 -118.4081 228° Southwest  Level Estimated
11:13AM 33.9425 -118.4081 228° Southwest  Level Estimated